Terminal Aerodrome Forecast
Issued by NWS

Home | Current Version | Previous Version | Graphics & Text | Print | Product List | Glossary On
Versions: 1 2 3 4 5 6 7 8 9 10 11 12 13 14 15 16 17 18 19 20
000
FTUS43 KGRB 310500
TAFCWA
TAF
KCWA 310520Z 3106/0106 VRB03KT P6SM BKN060
     FM311600 29008KT P6SM BKN035
     FM311900 30008KT P6SM SCT040
     FM010000 34004KT P6SM SCT250
      AMD LTD TO CLD VIS AND WIND TIL 311200=

USA.gov is the U.S. government's official web portal to all federal, state and local government web resources and services.